sensor_id;sensor_type;location;lat;lon;timestamp;temperature;humidity
4564;DHT22;2294;51.818;8.484;2023-04-03T00:00:49;3.20;99.90
4564;DHT22;2294;51.818;8.484;2023-04-03T00:03:16;3.10;99.90
4564;DHT22;2294;51.818;8.484;2023-04-03T00:05:43;3.10;99.90
4564;DHT22;2294;51.818;8.484;2023-04-03T00:08:10;3.10;99.90
4564;DHT22;2294;51.818;8.484;2023-04-03T00:10:37;3.00;99.90
4564;DHT22;2294;51.818;8.484;2023-04-03T00:13:07;3.00;99.90
4564;DHT22;2294;51.818;8.484;2023-04-03T00:15:35;2.90;99.90
4564;DHT22;2294;51.818;8.484;2023-04-03T00:18:03;3.00;99.90
4564;DHT22;2294;51.818;8.484;2023-04-03T00:20:30;2.80;99.90
4564;DHT22;2294;51.818;8.484;2023-04-03T00:22:57;2.90;99.90
4564;DHT22;2294;51.818;8.484;2023-04-03T00:25:24;2.80;99.90
4564;DHT22;2294;51.818;8.484;2023-04-03T00:27:51;2.80;99.90
4564;DHT22;2294;51.818;8.484;2023-04-03T00:30:22;2.60;99.90
4564;DHT22;2294;51.818;8.484;2023-04-03T00:32:50;2.50;99.90
4564;DHT22;2294;51.818;8.484;2023-04-03T00:35:18;2.70;99.90
4564;DHT22;2294;51.818;8.484;2023-04-03T00:37:46;2.60;99.90
4564;DHT22;2294;51.818;8.484;2023-04-03T00:40:14;2.60;99.90
4564;DHT22;2294;51.818;8.484;2023-04-03T00:42:43;2.70;99.90
4564;DHT22;2294;51.818;8.484;2023-04-03T00:45:28;2.60;99.90
4564;DHT22;2294;51.818;8.484;2023-04-03T00:47:55;2.60;99.90
4564;DHT22;2294;51.818;8.484;2023-04-03T00:50:25;2.50;99.90
4564;DHT22;2294;51.818;8.484;2023-04-03T00:52:52;2.70;99.90
4564;DHT22;2294;51.818;8.484;2023-04-03T00:55:20;2.60;99.90
4564;DHT22;2294;51.818;8.484;2023-04-03T00:57:47;2.50;99.90
4564;DHT22;2294;51.818;8.484;2023-04-03T01:00:17;2.40;99.90
4564;DHT22;2294;51.818;8.484;2023-04-03T01:02:46;2.30;99.90
4564;DHT22;2294;51.818;8.484;2023-04-03T01:05:16;2.30;99.90
4564;DHT22;2294;51.818;8.484;2023-04-03T01:07:43;2.30;99.90
4564;DHT22;2294;51.818;8.484;2023-04-03T01:10:12;2.20;99.90
4564;DHT22;2294;51.818;8.484;2023-04-03T01:12:42;2.20;99.90
4564;DHT22;2294;51.818;8.484;2023-04-03T01:15:11;2.40;99.90
4564;DHT22;2294;51.818;8.484;2023-04-03T01:17:41;2.30;99.90
4564;DHT22;2294;51.818;8.484;2023-04-03T01:20:43;2.30;99.90
4564;DHT22;2294;51.818;8.484;2023-04-03T01:23:25;2.30;99.90
4564;DHT22;2294;51.818;8.484;2023-04-03T01:25:54;2.30;99.90
4564;DHT22;2294;51.818;8.484;2023-04-03T01:28:24;2.30;99.90
4564;DHT22;2294;51.818;8.484;2023-04-03T01:30:59;2.10;99.90
4564;DHT22;2294;51.818;8.484;2023-04-03T01:33:29;2.10;99.90
4564;DHT22;2294;51.818;8.484;2023-04-03T01:35:56;2.00;99.90
4564;DHT22;2294;51.818;8.484;2023-04-03T01:38:23;1.90;99.90
4564;DHT22;2294;51.818;8.484;2023-04-03T01:40:50;2.00;99.90
4564;DHT22;2294;51.818;8.484;2023-04-03T01:43:17;2.00;99.90
4564;DHT22;2294;51.818;8.484;2023-04-03T01:45:44;2.00;99.90
4564;DHT22;2294;51.818;8.484;2023-04-03T01:48:12;2.00;99.90
4564;DHT22;2294;51.818;8.484;2023-04-03T01:50:40;2.00;99.90
4564;DHT22;2294;51.818;8.484;2023-04-03T01:53:07;2.00;99.90
4564;DHT22;2294;51.818;8.484;2023-04-03T01:55:34;1.90;99.90
4564;DHT22;2294;51.818;8.484;2023-04-03T01:58:01;1.80;99.90
4564;DHT22;2294;51.818;8.484;2023-04-03T02:00:28;1.70;99.90
4564;DHT22;2294;51.818;8.484;2023-04-03T02:02:55;1.80;99.90
4564;DHT22;2294;51.818;8.484;2023-04-03T02:05:22;1.70;99.90
4564;DHT22;2294;51.818;8.484;2023-04-03T02:07:50;2.90;99.90
4564;DHT22;2294;51.818;8.484;2023-04-03T02:10:17;1.70;99.90
4564;DHT22;2294;51.818;8.484;2023-04-03T02:12:45;1.70;99.90
4564;DHT22;2294;51.818;8.484;2023-04-03T02:15:11;3.00;99.90
4564;DHT22;2294;51.818;8.484;2023-04-03T02:17:38;1.80;99.90
4564;DHT22;2294;51.818;8.484;2023-04-03T02:20:07;1.70;99.90
4564;DHT22;2294;51.818;8.484;2023-04-03T02:22:34;1.80;99.90
4564;DHT22;2294;51.818;8.484;2023-04-03T02:25:02;1.70;99.90
4564;DHT22;2294;51.818;8.484;2023-04-03T02:27:29;1.80;99.90
4564;DHT22;2294;51.818;8.484;2023-04-03T02:29:57;1.70;99.90
4564;DHT22;2294;51.818;8.484;2023-04-03T02:32:24;1.60;99.90
4564;DHT22;2294;51.818;8.484;2023-04-03T02:34:50;1.50;99.90
4564;DHT22;2294;51.818;8.484;2023-04-03T02:37:17;1.40;99.90
4564;DHT22;2294;51.818;8.484;2023-04-03T02:39:44;1.40;99.90
4564;DHT22;2294;51.818;8.484;2023-04-03T02:42:13;1.40;99.90
4564;DHT22;2294;51.818;8.484;2023-04-03T02:44:40;1.30;99.90
4564;DHT22;2294;51.818;8.484;2023-04-03T02:47:07;1.30;99.90
4564;DHT22;2294;51.818;8.484;2023-04-03T02:49:34;1.30;99.90
4564;DHT22;2294;51.818;8.484;2023-04-03T02:52:00;1.30;99.90
4564;DHT22;2294;51.818;8.484;2023-04-03T02:54:27;1.30;99.90
4564;DHT22;2294;51.818;8.484;2023-04-03T02:56:56;1.20;99.90
4564;DHT22;2294;51.818;8.484;2023-04-03T02:59:24;1.20;99.90
4564;DHT22;2294;51.818;8.484;2023-04-03T03:01:51;1.20;99.90
4564;DHT22;2294;51.818;8.484;2023-04-03T03:04:18;1.20;99.90
4564;DHT22;2294;51.818;8.484;2023-04-03T03:06:45;1.00;99.90
4564;DHT22;2294;51.818;8.484;2023-04-03T03:09:12;0.90;99.90
4564;DHT22;2294;51.818;8.484;2023-04-03T03:11:40;0.90;99.90
4564;DHT22;2294;51.818;8.484;2023-04-03T03:14:07;0.70;99.90
4564;DHT22;2294;51.818;8.484;2023-04-03T03:16:35;0.60;99.90
4564;DHT22;2294;51.818;8.484;2023-04-03T03:19:02;0.60;99.90
4564;DHT22;2294;51.818;8.484;2023-04-03T03:21:30;0.60;99.90
4564;DHT22;2294;51.818;8.484;2023-04-03T03:23:57;0.70;99.90
4564;DHT22;2294;51.818;8.484;2023-04-03T03:26:23;0.80;99.90
4564;DHT22;2294;51.818;8.484;2023-04-03T03:28:51;0.80;99.90
4564;DHT22;2294;51.818;8.484;2023-04-03T03:31:18;0.70;99.90
4564;DHT22;2294;51.818;8.484;2023-04-03T03:33:46;0.80;99.90
4564;DHT22;2294;51.818;8.484;2023-04-03T03:36:13;0.80;99.90
4564;DHT22;2294;51.818;8.484;2023-04-03T03:38:40;0.70;99.90
4564;DHT22;2294;51.818;8.484;2023-04-03T03:41:07;0.70;99.90
4564;DHT22;2294;51.818;8.484;2023-04-03T03:43:33;0.80;99.90
4564;DHT22;2294;51.818;8.484;2023-04-03T03:46:00;0.80;99.90
4564;DHT22;2294;51.818;8.484;2023-04-03T03:48:27;0.90;99.90
4564;DHT22;2294;51.818;8.484;2023-04-03T03:50:55;0.60;99.90
4564;DHT22;2294;51.818;8.484;2023-04-03T03:53:22;0.60;99.90
4564;DHT22;2294;51.818;8.484;2023-04-03T03:55:49;0.70;99.90
4564;DHT22;2294;51.818;8.484;2023-04-03T03:58:16;0.90;99.90
4564;DHT22;2294;51.818;8.484;2023-04-03T04:00:44;0.90;99.90
4564;DHT22;2294;51.818;8.484;2023-04-03T04:03:11;0.80;99.90
4564;DHT22;2294;51.818;8.484;2023-04-03T04:05:38;0.90;99.90
4564;DHT22;2294;51.818;8.484;2023-04-03T04:08:06;0.80;99.90
4564;DHT22;2294;51.818;8.484;2023-04-03T04:10:33;0.70;99.90
4564;DHT22;2294;51.818;8.484;2023-04-03T04:13:00;0.80;99.90
4564;DHT22;2294;51.818;8.484;2023-04-03T04:15:27;0.90;99.90
4564;DHT22;2294;51.818;8.484;2023-04-03T04:17:54;0.80;99.90
4564;DHT22;2294;51.818;8.484;2023-04-03T04:20:22;0.80;99.90
4564;DHT22;2294;51.818;8.484;2023-04-03T04:22:49;0.70;99.90
4564;DHT22;2294;51.818;8.484;2023-04-03T04:25:17;0.70;99.90
4564;DHT22;2294;51.818;8.484;2023-04-03T04:27:44;0.70;99.90
4564;DHT22;2294;51.818;8.484;2023-04-03T04:30:12;0.80;99.90
4564;DHT22;2294;51.818;8.484;2023-04-03T04:32:39;0.70;99.90
4564;DHT22;2294;51.818;8.484;2023-04-03T04:35:07;0.60;99.90
4564;DHT22;2294;51.818;8.484;2023-04-03T04:37:34;0.70;99.90
4564;DHT22;2294;51.818;8.484;2023-04-03T04:40:01;0.70;99.90
4564;DHT22;2294;51.818;8.484;2023-04-03T04:42:30;0.80;99.90
4564;DHT22;2294;51.818;8.484;2023-04-03T04:44:56;0.70;99.90
4564;DHT22;2294;51.818;8.484;2023-04-03T04:47:23;0.80;99.90
4564;DHT22;2294;51.818;8.484;2023-04-03T04:49:50;0.60;99.90
4564;DHT22;2294;51.818;8.484;2023-04-03T04:52:17;0.90;99.90
4564;DHT22;2294;51.818;8.484;2023-04-03T04:54:45;0.80;99.90
4564;DHT22;2294;51.818;8.484;2023-04-03T04:57:11;0.70;99.90
4564;DHT22;2294;51.818;8.484;2023-04-03T04:59:40;0.60;99.90
4564;DHT22;2294;51.818;8.484;2023-04-03T05:02:06;0.60;99.90
4564;DHT22;2294;51.818;8.484;2023-04-03T05:04:33;0.50;99.90
4564;DHT22;2294;51.818;8.484;2023-04-03T05:07:00;0.70;99.90
4564;DHT22;2294;51.818;8.484;2023-04-03T05:09:27;0.70;99.90
4564;DHT22;2294;51.818;8.484;2023-04-03T05:11:54;0.80;99.90
4564;DHT22;2294;51.818;8.484;2023-04-03T05:14:22;0.70;99.90
4564;DHT22;2294;51.818;8.484;2023-04-03T05:16:50;0.70;99.90
4564;DHT22;2294;51.818;8.484;2023-04-03T05:19:19;0.70;99.90
4564;DHT22;2294;51.818;8.484;2023-04-03T05:21:46;0.70;99.90
4564;DHT22;2294;51.818;8.484;2023-04-03T05:24:14;0.70;99.90
4564;DHT22;2294;51.818;8.484;2023-04-03T05:26:41;0.60;99.90
4564;DHT22;2294;51.818;8.484;2023-04-03T05:29:08;0.80;99.90
4564;DHT22;2294;51.818;8.484;2023-04-03T05:31:35;0.90;99.90
4564;DHT22;2294;51.818;8.484;2023-04-03T05:34:04;0.90;99.90
4564;DHT22;2294;51.818;8.484;2023-04-03T05:36:31;0.90;99.90
4564;DHT22;2294;51.818;8.484;2023-04-03T05:38:58;0.90;99.90
4564;DHT22;2294;51.818;8.484;2023-04-03T05:41:25;1.00;99.90
4564;DHT22;2294;51.818;8.484;2023-04-03T05:43:52;1.00;99.90
4564;DHT22;2294;51.818;8.484;2023-04-03T05:46:19;1.00;99.90
4564;DHT22;2294;51.818;8.484;2023-04-03T05:48:47;1.10;99.90
4564;DHT22;2294;51.818;8.484;2023-04-03T05:51:18;1.20;99.90
4564;DHT22;2294;51.818;8.484;2023-04-03T05:53:46;1.30;99.90
4564;DHT22;2294;51.818;8.484;2023-04-03T05:56:14;1.10;99.90
4564;DHT22;2294;51.818;8.484;2023-04-03T05:58:41;1.20;99.90
4564;DHT22;2294;51.818;8.484;2023-04-03T06:01:08;1.30;99.90
4564;DHT22;2294;51.818;8.484;2023-04-03T06:03:34;1.30;99.90
4564;DHT22;2294;51.818;8.484;2023-04-03T06:06:03;1.40;99.90
4564;DHT22;2294;51.818;8.484;2023-04-03T06:08:32;1.40;99.90
4564;DHT22;2294;51.818;8.484;2023-04-03T06:11:00;1.40;99.90
4564;DHT22;2294;51.818;8.484;2023-04-03T06:13:28;1.40;99.90
4564;DHT22;2294;51.818;8.484;2023-04-03T06:15:55;1.60;99.90
4564;DHT22;2294;51.818;8.484;2023-04-03T06:18:23;1.50;99.90
4564;DHT22;2294;51.818;8.484;2023-04-03T06:20:50;1.60;99.90
4564;DHT22;2294;51.818;8.484;2023-04-03T06:23:17;1.60;99.90
4564;DHT22;2294;51.818;8.484;2023-04-03T06:25:45;1.60;99.90
4564;DHT22;2294;51.818;8.484;2023-04-03T06:28:12;1.60;99.90
4564;DHT22;2294;51.818;8.484;2023-04-03T06:30:39;1.60;99.90
4564;DHT22;2294;51.818;8.484;2023-04-03T06:33:06;1.60;99.90
4564;DHT22;2294;51.818;8.484;2023-04-03T06:35:33;1.80;99.90
4564;DHT22;2294;51.818;8.484;2023-04-03T06:38:01;1.80;99.90
4564;DHT22;2294;51.818;8.484;2023-04-03T06:40:29;1.90;99.90
4564;DHT22;2294;51.818;8.484;2023-04-03T06:42:58;2.00;99.90
4564;DHT22;2294;51.818;8.484;2023-04-03T06:45:25;1.90;99.90
4564;DHT22;2294;51.818;8.484;2023-04-03T06:47:52;1.90;99.90
4564;DHT22;2294;51.818;8.484;2023-04-03T06:50:19;2.00;99.90
4564;DHT22;2294;51.818;8.484;2023-04-03T06:52:46;2.00;99.90
4564;DHT22;2294;51.818;8.484;2023-04-03T06:55:13;2.10;99.90
4564;DHT22;2294;51.818;8.484;2023-04-03T06:57:40;2.10;99.90
4564;DHT22;2294;51.818;8.484;2023-04-03T07:00:10;2.20;99.90
4564;DHT22;2294;51.818;8.484;2023-04-03T07:02:37;2.20;99.90
4564;DHT22;2294;51.818;8.484;2023-04-03T07:05:05;2.30;99.90
4564;DHT22;2294;51.818;8.484;2023-04-03T07:07:32;2.20;99.90
4564;DHT22;2294;51.818;8.484;2023-04-03T07:09:59;2.20;99.90
4564;DHT22;2294;51.818;8.484;2023-04-03T07:12:26;2.40;99.90
4564;DHT22;2294;51.818;8.484;2023-04-03T07:14:53;2.30;99.90
4564;DHT22;2294;51.818;8.484;2023-04-03T07:17:21;2.40;99.90
4564;DHT22;2294;51.818;8.484;2023-04-03T07:19:49;2.50;99.90
4564;DHT22;2294;51.818;8.484;2023-04-03T07:22:16;2.50;99.90
4564;DHT22;2294;51.818;8.484;2023-04-03T07:24:43;2.50;99.90
4564;DHT22;2294;51.818;8.484;2023-04-03T07:27:10;2.60;99.90
4564;DHT22;2294;51.818;8.484;2023-04-03T07:29:38;2.50;99.90
4564;DHT22;2294;51.818;8.484;2023-04-03T07:32:05;2.60;99.90
4564;DHT22;2294;51.818;8.484;2023-04-03T07:34:34;2.60;99.90
4564;DHT22;2294;51.818;8.484;2023-04-03T07:37:01;2.60;99.90
4564;DHT22;2294;51.818;8.484;2023-04-03T07:39:28;2.60;99.90
4564;DHT22;2294;51.818;8.484;2023-04-03T07:41:55;2.70;99.90
4564;DHT22;2294;51.818;8.484;2023-04-03T07:44:22;2.70;99.90
4564;DHT22;2294;51.818;8.484;2023-04-03T07:46:49;2.80;99.90
4564;DHT22;2294;51.818;8.484;2023-04-03T07:49:17;2.80;99.90
4564;DHT22;2294;51.818;8.484;2023-04-03T07:51:45;2.90;99.90
4564;DHT22;2294;51.818;8.484;2023-04-03T07:54:14;3.00;99.90
4564;DHT22;2294;51.818;8.484;2023-04-03T07:56:41;2.90;99.90
4564;DHT22;2294;51.818;8.484;2023-04-03T07:59:09;3.10;99.90
4564;DHT22;2294;51.818;8.484;2023-04-03T08:01:37;3.10;99.90
4564;DHT22;2294;51.818;8.484;2023-04-03T08:04:04;3.10;99.90
4564;DHT22;2294;51.818;8.484;2023-04-03T08:06:32;3.30;99.90
4564;DHT22;2294;51.818;8.484;2023-04-03T08:09:02;3.30;99.90
4564;DHT22;2294;51.818;8.484;2023-04-03T08:11:30;3.30;99.90
4564;DHT22;2294;51.818;8.484;2023-04-03T08:13:57;3.40;99.90
4564;DHT22;2294;51.818;8.484;2023-04-03T08:16:25;3.50;99.90
4564;DHT22;2294;51.818;8.484;2023-04-03T08:18:53;3.50;99.90
4564;DHT22;2294;51.818;8.484;2023-04-03T08:21:20;3.50;99.90
4564;DHT22;2294;51.818;8.484;2023-04-03T08:23:49;3.60;99.90
4564;DHT22;2294;51.818;8.484;2023-04-03T08:26:19;3.70;99.90
4564;DHT22;2294;51.818;8.484;2023-04-03T08:28:47;3.80;99.90
4564;DHT22;2294;51.818;8.484;2023-04-03T08:31:16;3.90;99.90
4564;DHT22;2294;51.818;8.484;2023-04-03T08:33:44;3.90;99.90
4564;DHT22;2294;51.818;8.484;2023-04-03T08:36:19;3.90;99.90
4564;DHT22;2294;51.818;8.484;2023-04-03T08:38:47;3.80;99.90
4564;DHT22;2294;51.818;8.484;2023-04-03T08:41:19;4.00;99.90
4564;DHT22;2294;51.818;8.484;2023-04-03T08:44:01;4.00;99.90
4564;DHT22;2294;51.818;8.484;2023-04-03T08:46:40;4.10;99.90
4564;DHT22;2294;51.818;8.484;2023-04-03T08:49:16;4.30;99.90
4564;DHT22;2294;51.818;8.484;2023-04-03T08:51:47;4.20;99.90
4564;DHT22;2294;51.818;8.484;2023-04-03T08:54:22;4.30;99.90
4564;DHT22;2294;51.818;8.484;2023-04-03T08:56:51;4.40;99.90
4564;DHT22;2294;51.818;8.484;2023-04-03T08:59:24;4.50;99.90
4564;DHT22;2294;51.818;8.484;2023-04-03T09:01:54;4.60;99.90
4564;DHT22;2294;51.818;8.484;2023-04-03T09:04:21;4.60;99.90
4564;DHT22;2294;51.818;8.484;2023-04-03T09:06:51;4.60;99.90
4564;DHT22;2294;51.818;8.484;2023-04-03T09:09:30;4.70;99.90
4564;DHT22;2294;51.818;8.484;2023-04-03T09:12:05;4.70;99.90
4564;DHT22;2294;51.818;8.484;2023-04-03T09:14:38;4.80;99.90
4564;DHT22;2294;51.818;8.484;2023-04-03T09:17:13;4.80;99.90
4564;DHT22;2294;51.818;8.484;2023-04-03T09:19:48;5.10;99.90
4564;DHT22;2294;51.818;8.484;2023-04-03T09:22:20;5.30;99.90
4564;DHT22;2294;51.818;8.484;2023-04-03T09:24:52;5.40;99.90
4564;DHT22;2294;51.818;8.484;2023-04-03T09:27:24;5.20;99.90
4564;DHT22;2294;51.818;8.484;2023-04-03T09:29:53;5.30;99.90
4564;DHT22;2294;51.818;8.484;2023-04-03T09:32:25;5.30;99.90
4564;DHT22;2294;51.818;8.484;2023-04-03T09:34:53;5.50;99.90
4564;DHT22;2294;51.818;8.484;2023-04-03T09:37:35;5.30;99.90
4564;DHT22;2294;51.818;8.484;2023-04-03T09:40:04;5.10;99.90
4564;DHT22;2294;51.818;8.484;2023-04-03T09:42:40;5.20;99.90
4564;DHT22;2294;51.818;8.484;2023-04-03T09:45:21;5.40;99.90
4564;DHT22;2294;51.818;8.484;2023-04-03T09:48:05;5.40;99.90
4564;DHT22;2294;51.818;8.484;2023-04-03T09:50:33;5.60;99.90
4564;DHT22;2294;51.818;8.484;2023-04-03T09:53:05;5.60;99.90
4564;DHT22;2294;51.818;8.484;2023-04-03T09:55:42;5.70;99.90
4564;DHT22;2294;51.818;8.484;2023-04-03T09:58:24;5.90;99.90
4564;DHT22;2294;51.818;8.484;2023-04-03T10:00:55;5.60;99.90
4564;DHT22;2294;51.818;8.484;2023-04-03T10:03:25;5.70;99.90
4564;DHT22;2294;51.818;8.484;2023-04-03T10:05:52;6.10;99.90
4564;DHT22;2294;51.818;8.484;2023-04-03T10:08:23;5.80;99.90
4564;DHT22;2294;51.818;8.484;2023-04-03T10:11:11;5.90;99.90
4564;DHT22;2294;51.818;8.484;2023-04-03T10:13:54;6.10;99.90
4564;DHT22;2294;51.818;8.484;2023-04-03T10:16:29;6.00;99.90
4564;DHT22;2294;51.818;8.484;2023-04-03T10:19:22;6.40;99.90
4564;DHT22;2294;51.818;8.484;2023-04-03T10:21:55;6.60;99.90
4564;DHT22;2294;51.818;8.484;2023-04-03T10:24:28;7.00;99.90
4564;DHT22;2294;51.818;8.484;2023-04-03T10:27:01;7.50;99.90
4564;DHT22;2294;51.818;8.484;2023-04-03T10:29:40;7.50;99.90
4564;DHT22;2294;51.818;8.484;2023-04-03T10:32:19;7.50;99.90
4564;DHT22;2294;51.818;8.484;2023-04-03T10:34:53;7.40;99.90
4564;DHT22;2294;51.818;8.484;2023-04-03T10:37:26;7.60;99.90
4564;DHT22;2294;51.818;8.484;2023-04-03T10:40:05;7.60;99.90
4564;DHT22;2294;51.818;8.484;2023-04-03T10:42:41;7.20;99.90
4564;DHT22;2294;51.818;8.484;2023-04-03T10:45:21;7.00;99.90
4564;DHT22;2294;51.818;8.484;2023-04-03T10:47:58;7.00;99.90
4564;DHT22;2294;51.818;8.484;2023-04-03T10:50:31;6.70;99.90
4564;DHT22;2294;51.818;8.484;2023-04-03T10:53:08;6.50;99.90
4564;DHT22;2294;51.818;8.484;2023-04-03T10:55:40;6.20;99.90
4564;DHT22;2294;51.818;8.484;2023-04-03T10:58:21;6.20;99.90
4564;DHT22;2294;51.818;8.484;2023-04-03T11:00:53;6.70;99.90
4564;DHT22;2294;51.818;8.484;2023-04-03T11:03:29;6.60;99.90
4564;DHT22;2294;51.818;8.484;2023-04-03T11:05:59;7.10;99.90
4564;DHT22;2294;51.818;8.484;2023-04-03T11:08:33;7.30;99.90
4564;DHT22;2294;51.818;8.484;2023-04-03T11:11:04;7.30;99.90
4564;DHT22;2294;51.818;8.484;2023-04-03T11:13:34;7.70;99.90
4564;DHT22;2294;51.818;8.484;2023-04-03T11:16:05;8.00;99.90
4564;DHT22;2294;51.818;8.484;2023-04-03T11:18:37;7.50;99.90
4564;DHT22;2294;51.818;8.484;2023-04-03T11:21:11;6.80;99.90
4564;DHT22;2294;51.818;8.484;2023-04-03T11:23:40;6.50;99.90
4564;DHT22;2294;51.818;8.484;2023-04-03T11:26:10;7.00;99.90
4564;DHT22;2294;51.818;8.484;2023-04-03T11:28:38;6.70;99.90
4564;DHT22;2294;51.818;8.484;2023-04-03T11:31:19;6.50;99.90
4564;DHT22;2294;51.818;8.484;2023-04-03T11:33:58;6.90;99.90
4564;DHT22;2294;51.818;8.484;2023-04-03T11:36:29;7.00;99.90
4564;DHT22;2294;51.818;8.484;2023-04-03T11:39:00;7.80;99.90
4564;DHT22;2294;51.818;8.484;2023-04-03T11:41:29;8.30;99.90
4564;DHT22;2294;51.818;8.484;2023-04-03T11:43:59;8.20;99.90
4564;DHT22;2294;51.818;8.484;2023-04-03T11:46:52;8.00;99.90
4564;DHT22;2294;51.818;8.484;2023-04-03T11:49:58;7.90;99.90
4564;DHT22;2294;51.818;8.484;2023-04-03T11:52:59;7.50;99.90
4564;DHT22;2294;51.818;8.484;2023-04-03T11:56:00;7.30;99.90
4564;DHT22;2294;51.818;8.484;2023-04-03T11:58:30;6.90;99.90
4564;DHT22;2294;51.818;8.484;2023-04-03T12:01:03;6.80;99.90
4564;DHT22;2294;51.818;8.484;2023-04-03T12:04:04;6.90;99.90
4564;DHT22;2294;51.818;8.484;2023-04-03T12:06:59;7.50;99.90
4564;DHT22;2294;51.818;8.484;2023-04-03T12:09:29;8.80;99.90
4564;DHT22;2294;51.818;8.484;2023-04-03T12:12:00;9.20;99.90
4564;DHT22;2294;51.818;8.484;2023-04-03T12:14:28;9.50;99.90
4564;DHT22;2294;51.818;8.484;2023-04-03T12:16:57;9.70;99.90
4564;DHT22;2294;51.818;8.484;2023-04-03T12:19:34;9.50;99.90
4564;DHT22;2294;51.818;8.484;2023-04-03T12:22:20;9.40;99.90
4564;DHT22;2294;51.818;8.484;2023-04-03T12:24:49;8.60;99.90
4564;DHT22;2294;51.818;8.484;2023-04-03T12:27:29;8.70;99.90
4564;DHT22;2294;51.818;8.484;2023-04-03T12:30:05;9.20;99.90
4564;DHT22;2294;51.818;8.484;2023-04-03T12:35:31;9.40;99.90
4564;DHT22;2294;51.818;8.484;2023-04-03T12:38:33;9.20;99.90
4564;DHT22;2294;51.818;8.484;2023-04-03T12:41:18;8.60;99.90
4564;DHT22;2294;51.818;8.484;2023-04-03T12:44:04;9.10;99.90
4564;DHT22;2294;51.818;8.484;2023-04-03T12:46:36;9.90;99.90
4564;DHT22;2294;51.818;8.484;2023-04-03T12:49:14;9.20;99.90
4564;DHT22;2294;51.818;8.484;2023-04-03T12:51:47;8.30;99.90
4564;DHT22;2294;51.818;8.484;2023-04-03T12:54:17;8.00;99.90
4564;DHT22;2294;51.818;8.484;2023-04-03T12:56:46;7.70;99.90
4564;DHT22;2294;51.818;8.484;2023-04-03T12:59:15;8.40;99.90
4564;DHT22;2294;51.818;8.484;2023-04-03T13:01:43;8.60;99.90
4564;DHT22;2294;51.818;8.484;2023-04-03T13:04:11;8.10;99.90
4564;DHT22;2294;51.818;8.484;2023-04-03T13:06:41;8.40;99.90
4564;DHT22;2294;51.818;8.484;2023-04-03T13:09:20;8.00;99.90
4564;DHT22;2294;51.818;8.484;2023-04-03T13:11:54;8.10;99.90
4564;DHT22;2294;51.818;8.484;2023-04-03T13:14:24;8.00;99.90
4564;DHT22;2294;51.818;8.484;2023-04-03T13:16:55;8.00;99.90
4564;DHT22;2294;51.818;8.484;2023-04-03T13:19:23;8.20;99.90
4564;DHT22;2294;51.818;8.484;2023-04-03T13:21:56;8.20;99.90
4564;DHT22;2294;51.818;8.484;2023-04-03T13:24:27;8.00;99.90
4564;DHT22;2294;51.818;8.484;2023-04-03T13:26:55;8.20;99.90
4564;DHT22;2294;51.818;8.484;2023-04-03T13:29:25;7.90;99.90
4564;DHT22;2294;51.818;8.484;2023-04-03T13:31:54;8.20;99.90
4564;DHT22;2294;51.818;8.484;2023-04-03T13:34:23;7.80;99.90
4564;DHT22;2294;51.818;8.484;2023-04-03T13:36:57;8.70;99.90
4564;DHT22;2294;51.818;8.484;2023-04-03T13:39:27;8.80;99.90
4564;DHT22;2294;51.818;8.484;2023-04-03T13:41:58;7.70;99.90
4564;DHT22;2294;51.818;8.484;2023-04-03T13:44:30;8.80;99.90
4564;DHT22;2294;51.818;8.484;2023-04-03T13:47:00;10.00;99.90
4564;DHT22;2294;51.818;8.484;2023-04-03T13:49:32;11.20;99.90
4564;DHT22;2294;51.818;8.484;2023-04-03T13:52:00;12.90;99.90
4564;DHT22;2294;51.818;8.484;2023-04-03T13:54:33;13.70;99.90
4564;DHT22;2294;51.818;8.484;2023-04-03T13:57:02;13.90;99.90
4564;DHT22;2294;51.818;8.484;2023-04-03T13:59:31;14.70;99.90
4564;DHT22;2294;51.818;8.484;2023-04-03T14:04:27;13.80;99.90
4564;DHT22;2294;51.818;8.484;2023-04-03T14:06:55;14.20;99.90
4564;DHT22;2294;51.818;8.484;2023-04-03T14:09:23;13.70;99.90
4564;DHT22;2294;51.818;8.484;2023-04-03T14:12:04;15.10;99.90
4564;DHT22;2294;51.818;8.484;2023-04-03T14:14:34;16.00;99.90
4564;DHT22;2294;51.818;8.484;2023-04-03T14:17:03;16.50;99.90
4564;DHT22;2294;51.818;8.484;2023-04-03T14:19:36;16.00;99.90
4564;DHT22;2294;51.818;8.484;2023-04-03T14:22:14;16.00;99.90
4564;DHT22;2294;51.818;8.484;2023-04-03T14:24:41;15.00;99.90
4564;DHT22;2294;51.818;8.484;2023-04-03T14:27:16;15.10;99.90
4564;DHT22;2294;51.818;8.484;2023-04-03T14:29:43;16.00;99.90
4564;DHT22;2294;51.818;8.484;2023-04-03T14:32:12;16.40;99.90
4564;DHT22;2294;51.818;8.484;2023-04-03T14:34:39;16.50;99.90
4564;DHT22;2294;51.818;8.484;2023-04-03T14:37:10;16.80;99.90
4564;DHT22;2294;51.818;8.484;2023-04-03T14:39:37;17.40;41.60
4564;DHT22;2294;51.818;8.484;2023-04-03T14:42:04;17.10;1.00
4564;DHT22;2294;51.818;8.484;2023-04-03T14:44:32;17.40;1.00
4564;DHT22;2294;51.818;8.484;2023-04-03T14:46:59;15.40;1.00
4564;DHT22;2294;51.818;8.484;2023-04-03T14:49:27;17.00;1.00
4564;DHT22;2294;51.818;8.484;2023-04-03T14:51:55;18.30;1.00
4564;DHT22;2294;51.818;8.484;2023-04-03T14:54:22;16.60;99.90
4564;DHT22;2294;51.818;8.484;2023-04-03T14:56:53;17.00;99.90
4564;DHT22;2294;51.818;8.484;2023-04-03T17:01:22;8.80;99.90
4564;DHT22;2294;51.818;8.484;2023-04-03T17:03:49;8.30;99.90
4564;DHT22;2294;51.818;8.484;2023-04-03T17:06:18;8.40;99.90
4564;DHT22;2294;51.818;8.484;2023-04-03T17:08:47;8.20;99.90
4564;DHT22;2294;51.818;8.484;2023-04-03T17:11:14;8.30;99.90
4564;DHT22;2294;51.818;8.484;2023-04-03T17:13:41;8.20;99.90
4564;DHT22;2294;51.818;8.484;2023-04-03T17:16:10;8.20;99.90
4564;DHT22;2294;51.818;8.484;2023-04-03T17:18:39;8.00;99.90
4564;DHT22;2294;51.818;8.484;2023-04-03T17:21:07;7.80;99.90
4564;DHT22;2294;51.818;8.484;2023-04-03T17:23:34;7.80;99.90
4564;DHT22;2294;51.818;8.484;2023-04-03T17:26:03;8.00;99.90
4564;DHT22;2294;51.818;8.484;2023-04-03T17:28:35;7.80;99.90
4564;DHT22;2294;51.818;8.484;2023-04-03T17:31:05;7.60;99.90
4564;DHT22;2294;51.818;8.484;2023-04-03T17:33:32;7.70;99.90
4564;DHT22;2294;51.818;8.484;2023-04-03T17:36:02;7.40;99.90
4564;DHT22;2294;51.818;8.484;2023-04-03T17:38:30;7.30;99.90
4564;DHT22;2294;51.818;8.484;2023-04-03T17:40:58;7.00;99.90
4564;DHT22;2294;51.818;8.484;2023-04-03T17:43:26;7.00;99.90
4564;DHT22;2294;51.818;8.484;2023-04-03T17:45:59;7.10;99.90
4564;DHT22;2294;51.818;8.484;2023-04-03T17:48:28;7.00;99.90
4564;DHT22;2294;51.818;8.484;2023-04-03T17:50:55;6.90;99.90
4564;DHT22;2294;51.818;8.484;2023-04-03T17:53:24;6.80;99.90
4564;DHT22;2294;51.818;8.484;2023-04-03T17:55:52;6.70;99.90
4564;DHT22;2294;51.818;8.484;2023-04-03T17:58:19;6.50;99.90
4564;DHT22;2294;51.818;8.484;2023-04-03T18:00:46;6.40;99.90
4564;DHT22;2294;51.818;8.484;2023-04-03T18:03:13;6.50;99.90
4564;DHT22;2294;51.818;8.484;2023-04-03T18:05:39;6.30;99.90
4564;DHT22;2294;51.818;8.484;2023-04-03T18:08:06;6.10;99.90
4564;DHT22;2294;51.818;8.484;2023-04-03T18:10:36;6.00;99.90
4564;DHT22;2294;51.818;8.484;2023-04-03T18:13:03;6.00;99.90
4564;DHT22;2294;51.818;8.484;2023-04-03T18:15:33;5.80;99.90
4564;DHT22;2294;51.818;8.484;2023-04-03T18:18:02;5.90;99.90
4564;DHT22;2294;51.818;8.484;2023-04-03T18:20:29;5.80;99.90
4564;DHT22;2294;51.818;8.484;2023-04-03T18:22:56;5.90;99.90
4564;DHT22;2294;51.818;8.484;2023-04-03T18:25:23;5.80;99.90
4564;DHT22;2294;51.818;8.484;2023-04-03T18:27:51;5.70;99.90
4564;DHT22;2294;51.818;8.484;2023-04-03T18:30:18;5.50;99.90
4564;DHT22;2294;51.818;8.484;2023-04-03T18:32:46;5.40;99.90
4564;DHT22;2294;51.818;8.484;2023-04-03T18:35:13;5.30;99.90
4564;DHT22;2294;51.818;8.484;2023-04-03T18:37:40;5.30;99.90
4564;DHT22;2294;51.818;8.484;2023-04-03T18:40:08;5.20;99.90
4564;DHT22;2294;51.818;8.484;2023-04-03T18:42:35;5.00;99.90